sensor_id;sensor_type;location;lat;lon;timestamp;P1;durP1;ratioP1;P2;durP2;ratioP2
76351;SDS011;65179;47.786;19.138;2022-11-15T00:01:33;82.82;;;13.35;;
76351;SDS011;65179;47.786;19.138;2022-11-15T00:03:58;31.53;;;12.73;;
76351;SDS011;65179;47.786;19.138;2022-11-15T00:06:24;38.73;;;12.10;;
76351;SDS011;65179;47.786;19.138;2022-11-15T00:08:49;30.33;;;12.83;;
76351;SDS011;65179;47.786;19.138;2022-11-15T00:11:15;33.92;;;13.73;;
76351;SDS011;65179;47.786;19.138;2022-11-15T00:13:40;49.53;;;13.00;;
76351;SDS011;65179;47.786;19.138;2022-11-15T00:16:06;35.17;;;11.97;;
76351;SDS011;65179;47.786;19.138;2022-11-15T00:18:31;27.77;;;12.20;;
76351;SDS011;65179;47.786;19.138;2022-11-15T00:21:03;36.55;;;12.32;;
76351;SDS011;65179;47.786;19.138;2022-11-15T00:23:31;32.58;;;12.63;;
76351;SDS011;65179;47.786;19.138;2022-11-15T00:25:57;83.83;;;13.17;;
76351;SDS011;65179;47.786;19.138;2022-11-15T00:28:23;52.62;;;12.23;;
76351;SDS011;65179;47.786;19.138;2022-11-15T00:30:49;35.63;;;11.50;;
76351;SDS011;65179;47.786;19.138;2022-11-15T00:33:14;32.97;;;12.33;;
76351;SDS011;65179;47.786;19.138;2022-11-15T00:35:39;24.13;;;11.20;;
76351;SDS011;65179;47.786;19.138;2022-11-15T00:38:05;36.80;;;13.00;;
76351;SDS011;65179;47.786;19.138;2022-11-15T00:40:30;30.40;;;12.80;;
76351;SDS011;65179;47.786;19.138;2022-11-15T00:42:56;26.23;;;11.30;;
76351;SDS011;65179;47.786;19.138;2022-11-15T00:45:21;32.10;;;12.43;;
76351;SDS011;65179;47.786;19.138;2022-11-15T00:47:47;39.17;;;12.75;;
76351;SDS011;65179;47.786;19.138;2022-11-15T00:50:12;28.07;;;12.53;;
76351;SDS011;65179;47.786;19.138;2022-11-15T00:52:38;31.25;;;12.18;;
76351;SDS011;65179;47.786;19.138;2022-11-15T00:55:04;27.00;;;11.97;;
76351;SDS011;65179;47.786;19.138;2022-11-15T00:57:29;31.98;;;12.10;;
76351;SDS011;65179;47.786;19.138;2022-11-15T00:59:55;37.90;;;12.13;;
76351;SDS011;65179;47.786;19.138;2022-11-15T01:02:20;45.60;;;12.43;;
76351;SDS011;65179;47.786;19.138;2022-11-15T01:04:46;31.98;;;12.80;;
76351;SDS011;65179;47.786;19.138;2022-11-15T01:07:12;44.83;;;11.55;;
76351;SDS011;65179;47.786;19.138;2022-11-15T01:09:37;24.57;;;11.67;;
76351;SDS011;65179;47.786;19.138;2022-11-15T01:12:02;26.97;;;12.27;;
76351;SDS011;65179;47.786;19.138;2022-11-15T01:14:28;34.85;;;11.93;;
76351;SDS011;65179;47.786;19.138;2022-11-15T01:16:53;40.23;;;12.37;;
76351;SDS011;65179;47.786;19.138;2022-11-15T01:19:19;23.43;;;11.10;;
76351;SDS011;65179;47.786;19.138;2022-11-15T01:21:44;39.37;;;10.57;;
76351;SDS011;65179;47.786;19.138;2022-11-15T01:24:12;40.08;;;10.82;;
76351;SDS011;65179;47.786;19.138;2022-11-15T01:26:38;26.53;;;11.40;;
76351;SDS011;65179;47.786;19.138;2022-11-15T01:29:03;23.85;;;11.63;;
76351;SDS011;65179;47.786;19.138;2022-11-15T01:31:29;27.33;;;12.57;;
76351;SDS011;65179;47.786;19.138;2022-11-15T01:33:54;25.50;;;11.50;;
76351;SDS011;65179;47.786;19.138;2022-11-15T01:36:20;19.48;;;11.00;;
76351;SDS011;65179;47.786;19.138;2022-11-15T01:38:46;16.57;;;10.57;;
76351;SDS011;65179;47.786;19.138;2022-11-15T01:41:18;17.45;;;11.12;;
76351;SDS011;65179;47.786;19.138;2022-11-15T01:43:46;22.33;;;11.12;;
76351;SDS011;65179;47.786;19.138;2022-11-15T01:49:00;17.77;;;10.60;;
76351;SDS011;65179;47.786;19.138;2022-11-15T01:51:29;17.20;;;11.93;;
76351;SDS011;65179;47.786;19.138;2022-11-15T01:53:59;16.27;;;11.35;;
76351;SDS011;65179;47.786;19.138;2022-11-15T01:56:30;21.27;;;14.90;;
76351;SDS011;65179;47.786;19.138;2022-11-15T01:58:58;17.08;;;11.82;;
76351;SDS011;65179;47.786;19.138;2022-11-15T02:01:27;15.68;;;10.93;;
76351;SDS011;65179;47.786;19.138;2022-11-15T02:03:56;16.23;;;10.70;;
76351;SDS011;65179;47.786;19.138;2022-11-15T02:06:24;14.77;;;9.02;;
76351;SDS011;65179;47.786;19.138;2022-11-15T02:08:50;13.60;;;8.20;;
76351;SDS011;65179;47.786;19.138;2022-11-15T02:11:16;13.88;;;8.38;;
76351;SDS011;65179;47.786;19.138;2022-11-15T02:13:42;14.10;;;8.70;;
76351;SDS011;65179;47.786;19.138;2022-11-15T02:18:55;17.12;;;11.20;;
76351;SDS011;65179;47.786;19.138;2022-11-15T02:26:56;15.02;;;9.05;;
76351;SDS011;65179;47.786;19.138;2022-11-15T02:35:45;13.88;;;8.68;;
76351;SDS011;65179;47.786;19.138;2022-11-15T02:38:01;15.07;;;9.18;;
76351;SDS011;65179;47.786;19.138;2022-11-15T02:43:28;14.77;;;8.98;;
76351;SDS011;65179;47.786;19.138;2022-11-15T02:49:11;17.02;;;10.27;;
76351;SDS011;65179;47.786;19.138;2022-11-15T02:51:38;17.33;;;10.52;;
76351;SDS011;65179;47.786;19.138;2022-11-15T02:54:05;15.05;;;9.90;;
76351;SDS011;65179;47.786;19.138;2022-11-15T02:56:31;17.07;;;9.60;;
76351;SDS011;65179;47.786;19.138;2022-11-15T02:59:00;15.37;;;9.77;;
76351;SDS011;65179;47.786;19.138;2022-11-15T03:01:55;14.20;;;9.38;;
76351;SDS011;65179;47.786;19.138;2022-11-15T03:04:52;16.98;;;9.50;;
76351;SDS011;65179;47.786;19.138;2022-11-15T03:13:16;24.30;;;17.90;;
76351;SDS011;65179;47.786;19.138;2022-11-15T03:15:48;23.12;;;16.25;;
76351;SDS011;65179;47.786;19.138;2022-11-15T03:18:28;22.05;;;16.87;;
76351;SDS011;65179;47.786;19.138;2022-11-15T03:20:58;17.12;;;13.35;;
76351;SDS011;65179;47.786;19.138;2022-11-15T03:23:28;12.27;;;8.50;;
76351;SDS011;65179;47.786;19.138;2022-11-15T03:25:56;14.55;;;9.18;;
76351;SDS011;65179;47.786;19.138;2022-11-15T03:28:28;14.35;;;10.63;;
76351;SDS011;65179;47.786;19.138;2022-11-15T03:31:00;14.48;;;10.23;;
76351;SDS011;65179;47.786;19.138;2022-11-15T03:33:48;13.25;;;9.10;;
76351;SDS011;65179;47.786;19.138;2022-11-15T03:36:18;13.45;;;9.77;;
76351;SDS011;65179;47.786;19.138;2022-11-15T03:38:45;14.48;;;10.48;;
76351;SDS011;65179;47.786;19.138;2022-11-15T03:41:14;12.67;;;9.03;;
76351;SDS011;65179;47.786;19.138;2022-11-15T03:43:57;13.68;;;9.80;;
76351;SDS011;65179;47.786;19.138;2022-11-15T03:46:30;12.43;;;9.18;;
76351;SDS011;65179;47.786;19.138;2022-11-15T03:49:02;12.52;;;8.20;;
76351;SDS011;65179;47.786;19.138;2022-11-15T03:51:35;12.80;;;8.20;;
76351;SDS011;65179;47.786;19.138;2022-11-15T03:54:02;14.13;;;9.13;;
76351;SDS011;65179;47.786;19.138;2022-11-15T03:56:29;14.20;;;9.77;;
76351;SDS011;65179;47.786;19.138;2022-11-15T03:58:54;13.37;;;9.10;;
76351;SDS011;65179;47.786;19.138;2022-11-15T04:01:19;14.20;;;9.23;;
76351;SDS011;65179;47.786;19.138;2022-11-15T04:03:45;14.35;;;8.35;;
76351;SDS011;65179;47.786;19.138;2022-11-15T04:06:10;12.93;;;8.60;;
76351;SDS011;65179;47.786;19.138;2022-11-15T04:08:36;13.03;;;9.00;;
76351;SDS011;65179;47.786;19.138;2022-11-15T04:11:01;14.77;;;9.63;;
76351;SDS011;65179;47.786;19.138;2022-11-15T04:13:27;12.93;;;8.82;;
76351;SDS011;65179;47.786;19.138;2022-11-15T04:15:52;12.50;;;8.63;;
76351;SDS011;65179;47.786;19.138;2022-11-15T04:18:17;14.30;;;8.70;;
76351;SDS011;65179;47.786;19.138;2022-11-15T04:20:43;12.63;;;8.30;;
76351;SDS011;65179;47.786;19.138;2022-11-15T04:23:27;12.10;;;8.55;;
76351;SDS011;65179;47.786;19.138;2022-11-15T04:26:12;14.57;;;8.77;;
76351;SDS011;65179;47.786;19.138;2022-11-15T04:28:41;25.67;;;17.92;;
76351;SDS011;65179;47.786;19.138;2022-11-15T04:31:25;19.10;;;13.00;;
76351;SDS011;65179;47.786;19.138;2022-11-15T04:33:51;18.52;;;10.60;;
76351;SDS011;65179;47.786;19.138;2022-11-15T04:36:16;14.77;;;10.15;;
76351;SDS011;65179;47.786;19.138;2022-11-15T04:39:01;15.27;;;10.63;;
76351;SDS011;65179;47.786;19.138;2022-11-15T04:41:27;15.23;;;9.90;;
76351;SDS011;65179;47.786;19.138;2022-11-15T04:43:54;15.98;;;10.90;;
76351;SDS011;65179;47.786;19.138;2022-11-15T04:46:19;17.03;;;11.20;;
76351;SDS011;65179;47.786;19.138;2022-11-15T04:48:45;16.33;;;11.43;;
76351;SDS011;65179;47.786;19.138;2022-11-15T04:51:11;15.90;;;10.63;;
76351;SDS011;65179;47.786;19.138;2022-11-15T04:53:36;16.58;;;11.25;;
76351;SDS011;65179;47.786;19.138;2022-11-15T04:56:01;13.77;;;10.30;;
76351;SDS011;65179;47.786;19.138;2022-11-15T04:58:27;16.73;;;10.37;;
76351;SDS011;65179;47.786;19.138;2022-11-15T05:00:52;15.27;;;10.37;;
76351;SDS011;65179;47.786;19.138;2022-11-15T05:03:18;18.27;;;10.38;;
76351;SDS011;65179;47.786;19.138;2022-11-15T05:06:02;17.10;;;11.47;;
76351;SDS011;65179;47.786;19.138;2022-11-15T05:08:27;17.77;;;11.70;;
76351;SDS011;65179;47.786;19.138;2022-11-15T05:10:53;16.10;;;11.23;;
76351;SDS011;65179;47.786;19.138;2022-11-15T05:13:18;16.03;;;11.90;;
76351;SDS011;65179;47.786;19.138;2022-11-15T05:15:44;18.25;;;11.95;;
76351;SDS011;65179;47.786;19.138;2022-11-15T05:18:09;17.62;;;12.60;;
76351;SDS011;65179;47.786;19.138;2022-11-15T05:20:35;16.40;;;11.97;;
76351;SDS011;65179;47.786;19.138;2022-11-15T05:23:00;16.63;;;12.10;;
76351;SDS011;65179;47.786;19.138;2022-11-15T05:25:25;16.70;;;11.80;;
76351;SDS011;65179;47.786;19.138;2022-11-15T05:27:51;20.80;;;12.23;;
76351;SDS011;65179;47.786;19.138;2022-11-15T05:30:16;17.30;;;12.07;;
76351;SDS011;65179;47.786;19.138;2022-11-15T05:32:42;17.83;;;11.53;;
76351;SDS011;65179;47.786;19.138;2022-11-15T05:35:08;18.48;;;12.00;;
76351;SDS011;65179;47.786;19.138;2022-11-15T05:37:39;20.48;;;11.43;;
76351;SDS011;65179;47.786;19.138;2022-11-15T05:40:05;17.42;;;11.45;;
76351;SDS011;65179;47.786;19.138;2022-11-15T05:42:31;18.37;;;12.00;;
76351;SDS011;65179;47.786;19.138;2022-11-15T05:44:57;18.42;;;12.23;;
76351;SDS011;65179;47.786;19.138;2022-11-15T05:47:25;21.73;;;12.70;;
76351;SDS011;65179;47.786;19.138;2022-11-15T05:49:54;23.60;;;12.95;;
76351;SDS011;65179;47.786;19.138;2022-11-15T05:52:22;21.90;;;12.85;;
76351;SDS011;65179;47.786;19.138;2022-11-15T05:54:50;25.80;;;12.30;;
76351;SDS011;65179;47.786;19.138;2022-11-15T05:57:16;27.27;;;14.38;;
76351;SDS011;65179;47.786;19.138;2022-11-15T05:59:42;31.07;;;15.40;;
76351;SDS011;65179;47.786;19.138;2022-11-15T06:02:08;30.00;;;15.48;;
76351;SDS011;65179;47.786;19.138;2022-11-15T06:04:35;31.27;;;16.12;;
76351;SDS011;65179;47.786;19.138;2022-11-15T06:07:00;27.25;;;15.50;;
76351;SDS011;65179;47.786;19.138;2022-11-15T06:09:25;31.67;;;19.57;;
76351;SDS011;65179;47.786;19.138;2022-11-15T06:11:51;42.53;;;24.97;;
76351;SDS011;65179;47.786;19.138;2022-11-15T06:14:16;57.53;;;32.17;;
76351;SDS011;65179;47.786;19.138;2022-11-15T06:16:42;59.47;;;33.88;;
76351;SDS011;65179;47.786;19.138;2022-11-15T06:19:07;64.03;;;34.50;;
76351;SDS011;65179;47.786;19.138;2022-11-15T06:21:32;59.17;;;30.50;;
76351;SDS011;65179;47.786;19.138;2022-11-15T06:23:58;36.77;;;19.80;;
76351;SDS011;65179;47.786;19.138;2022-11-15T06:26:23;31.97;;;18.97;;
76351;SDS011;65179;47.786;19.138;2022-11-15T06:28:49;32.47;;;17.80;;
76351;SDS011;65179;47.786;19.138;2022-11-15T06:31:14;26.63;;;15.37;;
76351;SDS011;65179;47.786;19.138;2022-11-15T06:33:40;26.70;;;15.47;;
76351;SDS011;65179;47.786;19.138;2022-11-15T06:36:07;30.02;;;16.85;;
76351;SDS011;65179;47.786;19.138;2022-11-15T06:38:34;28.30;;;15.57;;
76351;SDS011;65179;47.786;19.138;2022-11-15T06:41:03;27.23;;;15.93;;
76351;SDS011;65179;47.786;19.138;2022-11-15T06:43:30;28.73;;;15.80;;
76351;SDS011;65179;47.786;19.138;2022-11-15T06:45:57;26.33;;;14.80;;
76351;SDS011;65179;47.786;19.138;2022-11-15T06:48:25;27.25;;;16.27;;
76351;SDS011;65179;47.786;19.138;2022-11-15T06:50:55;27.58;;;16.25;;
76351;SDS011;65179;47.786;19.138;2022-11-15T06:53:22;26.40;;;16.90;;
76351;SDS011;65179;47.786;19.138;2022-11-15T06:55:48;25.62;;;15.80;;
76351;SDS011;65179;47.786;19.138;2022-11-15T06:58:14;25.47;;;15.83;;
76351;SDS011;65179;47.786;19.138;2022-11-15T07:00:39;29.23;;;15.57;;
76351;SDS011;65179;47.786;19.138;2022-11-15T07:03:06;24.80;;;15.82;;
76351;SDS011;65179;47.786;19.138;2022-11-15T07:05:33;24.40;;;15.82;;
76351;SDS011;65179;47.786;19.138;2022-11-15T07:08:03;24.05;;;15.60;;
76351;SDS011;65179;47.786;19.138;2022-11-15T07:10:30;31.62;;;21.10;;
76351;SDS011;65179;47.786;19.138;2022-11-15T07:12:57;27.75;;;19.30;;
76351;SDS011;65179;47.786;19.138;2022-11-15T07:15:24;30.37;;;19.95;;
76351;SDS011;65179;47.786;19.138;2022-11-15T07:17:51;32.55;;;21.37;;
76351;SDS011;65179;47.786;19.138;2022-11-15T07:20:18;32.35;;;19.42;;
76351;SDS011;65179;47.786;19.138;2022-11-15T07:22:45;30.58;;;20.58;;
76351;SDS011;65179;47.786;19.138;2022-11-15T07:25:12;32.33;;;18.73;;
76351;SDS011;65179;47.786;19.138;2022-11-15T07:27:39;30.33;;;18.12;;
76351;SDS011;65179;47.786;19.138;2022-11-15T07:30:06;30.33;;;18.30;;
76351;SDS011;65179;47.786;19.138;2022-11-15T07:32:34;29.27;;;18.67;;
76351;SDS011;65179;47.786;19.138;2022-11-15T07:35:00;30.42;;;18.35;;
76351;SDS011;65179;47.786;19.138;2022-11-15T07:37:27;30.05;;;18.40;;
76351;SDS011;65179;47.786;19.138;2022-11-15T07:39:54;34.83;;;20.83;;
76351;SDS011;65179;47.786;19.138;2022-11-15T07:42:20;34.15;;;20.33;;
76351;SDS011;65179;47.786;19.138;2022-11-15T07:45:05;38.20;;;23.62;;
76351;SDS011;65179;47.786;19.138;2022-11-15T07:47:33;45.15;;;28.62;;
76351;SDS011;65179;47.786;19.138;2022-11-15T07:49:59;45.70;;;29.58;;
76351;SDS011;65179;47.786;19.138;2022-11-15T07:52:26;39.22;;;25.12;;
76351;SDS011;65179;47.786;19.138;2022-11-15T07:54:53;37.42;;;21.65;;
76351;SDS011;65179;47.786;19.138;2022-11-15T07:57:26;34.25;;;22.27;;
76351;SDS011;65179;47.786;19.138;2022-11-15T07:59:51;36.40;;;21.40;;
76351;SDS011;65179;47.786;19.138;2022-11-15T08:02:17;35.10;;;21.60;;
76351;SDS011;65179;47.786;19.138;2022-11-15T08:04:42;35.70;;;22.20;;
76351;SDS011;65179;47.786;19.138;2022-11-15T08:07:08;38.95;;;23.87;;
76351;SDS011;65179;47.786;19.138;2022-11-15T08:09:34;34.87;;;22.37;;
76351;SDS011;65179;47.786;19.138;2022-11-15T08:11:59;42.37;;;24.00;;
76351;SDS011;65179;47.786;19.138;2022-11-15T08:14:25;42.55;;;23.08;;
76351;SDS011;65179;47.786;19.138;2022-11-15T08:16:51;38.73;;;23.23;;
76351;SDS011;65179;47.786;19.138;2022-11-15T08:19:17;38.50;;;22.00;;
76351;SDS011;65179;47.786;19.138;2022-11-15T08:21:43;40.97;;;22.27;;
76351;SDS011;65179;47.786;19.138;2022-11-15T08:24:09;44.50;;;24.77;;
76351;SDS011;65179;47.786;19.138;2022-11-15T08:26:35;46.83;;;26.37;;
76351;SDS011;65179;47.786;19.138;2022-11-15T08:29:01;49.00;;;27.40;;
76351;SDS011;65179;47.786;19.138;2022-11-15T08:31:26;47.53;;;27.63;;
76351;SDS011;65179;47.786;19.138;2022-11-15T08:33:52;41.33;;;23.77;;
76351;SDS011;65179;47.786;19.138;2022-11-15T08:36:17;38.90;;;21.85;;
76351;SDS011;65179;47.786;19.138;2022-11-15T08:38:43;42.87;;;22.50;;
76351;SDS011;65179;47.786;19.138;2022-11-15T08:41:13;41.97;;;23.13;;
76351;SDS011;65179;47.786;19.138;2022-11-15T08:43:48;41.58;;;23.08;;
76351;SDS011;65179;47.786;19.138;2022-11-15T08:46:13;39.13;;;22.20;;
76351;SDS011;65179;47.786;19.138;2022-11-15T08:48:39;36.40;;;22.37;;
76351;SDS011;65179;47.786;19.138;2022-11-15T08:51:05;39.37;;;24.43;;
76351;SDS011;65179;47.786;19.138;2022-11-15T08:53:30;38.00;;;22.30;;
76351;SDS011;65179;47.786;19.138;2022-11-15T08:55:56;40.27;;;22.93;;
76351;SDS011;65179;47.786;19.138;2022-11-15T08:58:21;41.23;;;22.53;;
76351;SDS011;65179;47.786;19.138;2022-11-15T09:00:47;38.70;;;22.67;;
76351;SDS011;65179;47.786;19.138;2022-11-15T09:03:12;40.00;;;23.42;;
76351;SDS011;65179;47.786;19.138;2022-11-15T09:05:37;40.13;;;22.13;;
76351;SDS011;65179;47.786;19.138;2022-11-15T09:08:03;40.27;;;24.37;;
76351;SDS011;65179;47.786;19.138;2022-11-15T09:10:29;50.53;;;29.52;;
76351;SDS011;65179;47.786;19.138;2022-11-15T09:12:56;46.63;;;27.07;;
76351;SDS011;65179;47.786;19.138;2022-11-15T09:15:22;42.38;;;23.77;;
76351;SDS011;65179;47.786;19.138;2022-11-15T09:17:48;40.53;;;23.73;;
76351;SDS011;65179;47.786;19.138;2022-11-15T09:20:14;43.03;;;24.00;;
76351;SDS011;65179;47.786;19.138;2022-11-15T09:22:39;43.58;;;24.23;;
76351;SDS011;65179;47.786;19.138;2022-11-15T09:25:05;41.03;;;22.77;;
76351;SDS011;65179;47.786;19.138;2022-11-15T09:27:31;33.33;;;18.83;;
76351;SDS011;65179;47.786;19.138;2022-11-15T09:29:56;32.30;;;18.43;;
76351;SDS011;65179;47.786;19.138;2022-11-15T09:32:22;32.80;;;18.50;;
76351;SDS011;65179;47.786;19.138;2022-11-15T09:34:48;30.70;;;17.97;;
76351;SDS011;65179;47.786;19.138;2022-11-15T09:37:16;31.77;;;18.00;;
76351;SDS011;65179;47.786;19.138;2022-11-15T09:39:42;31.87;;;18.03;;
76351;SDS011;65179;47.786;19.138;2022-11-15T09:47:31;32.08;;;17.80;;
76351;SDS011;65179;47.786;19.138;2022-11-15T09:50:12;31.67;;;17.65;;
76351;SDS011;65179;47.786;19.138;2022-11-15T09:52:43;32.15;;;19.02;;
76351;SDS011;65179;47.786;19.138;2022-11-15T09:55:10;31.98;;;18.17;;
76351;SDS011;65179;47.786;19.138;2022-11-15T10:05:20;31.05;;;18.05;;
76351;SDS011;65179;47.786;19.138;2022-11-15T10:07:57;35.15;;;19.23;;
76351;SDS011;65179;47.786;19.138;2022-11-15T10:13:02;33.00;;;19.23;;
76351;SDS011;65179;47.786;19.138;2022-11-15T10:15:28;33.00;;;18.77;;
76351;SDS011;65179;47.786;19.138;2022-11-15T10:23:21;32.30;;;18.83;;
76351;SDS011;65179;47.786;19.138;2022-11-15T10:25:50;33.40;;;19.42;;
76351;SDS011;65179;47.786;19.138;2022-11-15T10:28:27;33.45;;;19.05;;
76351;SDS011;65179;47.786;19.138;2022-11-15T10:30:54;34.53;;;19.27;;
76351;SDS011;65179;47.786;19.138;2022-11-15T10:44:02;35.78;;;20.60;;
76351;SDS011;65179;47.786;19.138;2022-11-15T10:46:37;35.03;;;20.27;;
76351;SDS011;65179;47.786;19.138;2022-11-15T10:49:12;33.20;;;19.87;;
76351;SDS011;65179;47.786;19.138;2022-11-15T10:51:47;34.20;;;20.02;;
76351;SDS011;65179;47.786;19.138;2022-11-15T10:54:24;35.20;;;19.83;;
76351;SDS011;65179;47.786;19.138;2022-11-15T10:56:59;37.67;;;19.50;;
76351;SDS011;65179;47.786;19.138;2022-11-15T10:59:41;36.20;;;20.70;;
76351;SDS011;65179;47.786;19.138;2022-11-15T11:05:38;34.60;;;19.30;;
76351;SDS011;65179;47.786;19.138;2022-11-15T11:10:54;32.60;;;18.70;;
76351;SDS011;65179;47.786;19.138;2022-11-15T11:13:29;35.37;;;20.00;;
76351;SDS011;65179;47.786;19.138;2022-11-15T11:18:49;33.97;;;19.65;;
76351;SDS011;65179;47.786;19.138;2022-11-15T11:24:38;34.47;;;20.73;;
76351;SDS011;65179;47.786;19.138;2022-11-15T11:40:44;32.90;;;18.13;;
76351;SDS011;65179;47.786;19.138;2022-11-15T11:43:52;34.05;;;19.65;;
76351;SDS011;65179;47.786;19.138;2022-11-15T11:46:51;75.65;;;38.25;;
76351;SDS011;65179;47.786;19.138;2022-11-15T11:49:27;52.30;;;28.42;;
76351;SDS011;65179;47.786;19.138;2022-11-15T11:52:10;44.58;;;25.00;;
76351;SDS011;65179;47.786;19.138;2022-11-15T11:57:21;40.47;;;23.92;;
76351;SDS011;65179;47.786;19.138;2022-11-15T12:02:43;57.15;;;38.83;;
76351;SDS011;65179;47.786;19.138;2022-11-15T12:05:18;40.90;;;23.42;;
76351;SDS011;65179;47.786;19.138;2022-11-15T12:07:53;35.57;;;20.07;;
76351;SDS011;65179;47.786;19.138;2022-11-15T12:10:30;36.92;;;19.98;;
76351;SDS011;65179;47.786;19.138;2022-11-15T12:13:10;35.00;;;20.15;;
76351;SDS011;65179;47.786;19.138;2022-11-15T12:15:47;35.33;;;20.02;;
76351;SDS011;65179;47.786;19.138;2022-11-15T12:18:37;35.58;;;20.00;;
76351;SDS011;65179;47.786;19.138;2022-11-15T12:21:07;36.57;;;20.73;;
76351;SDS011;65179;47.786;19.138;2022-11-15T12:24:17;38.33;;;24.10;;
76351;SDS011;65179;47.786;19.138;2022-11-15T12:26:57;37.88;;;21.20;;
76351;SDS011;65179;47.786;19.138;2022-11-15T12:29:39;35.80;;;21.33;;
76351;SDS011;65179;47.786;19.138;2022-11-15T12:32:23;36.38;;;20.55;;
76351;SDS011;65179;47.786;19.138;2022-11-15T12:34:58;33.93;;;19.67;;
76351;SDS011;65179;47.786;19.138;2022-11-15T12:37:34;35.83;;;20.20;;
76351;SDS011;65179;47.786;19.138;2022-11-15T12:58:43;30.55;;;18.42;;
76351;SDS011;65179;47.786;19.138;2022-11-15T13:01:52;35.03;;;19.10;;
76351;SDS011;65179;47.786;19.138;2022-11-15T13:06:45;57.13;;;40.60;;
76351;SDS011;65179;47.786;19.138;2022-11-15T13:17:27;33.92;;;20.00;;
76351;SDS011;65179;47.786;19.138;2022-11-15T13:33:45;39.72;;;20.45;;
76351;SDS011;65179;47.786;19.138;2022-11-15T13:36:09;35.13;;;19.52;;
76351;SDS011;65179;47.786;19.138;2022-11-15T13:38:40;34.00;;;20.00;;
76351;SDS011;65179;47.786;19.138;2022-11-15T13:41:20;36.67;;;20.60;;
76351;SDS011;65179;47.786;19.138;2022-11-15T13:43:48;28.77;;;18.20;;
76351;SDS011;65179;47.786;19.138;2022-11-15T13:46:30;35.47;;;18.25;;
76351;SDS011;65179;47.786;19.138;2022-11-15T13:49:03;33.55;;;19.12;;
76351;SDS011;65179;47.786;19.138;2022-11-15T13:56:54;33.42;;;18.00;;
76351;SDS011;65179;47.786;19.138;2022-11-15T13:59:31;35.47;;;18.58;;
76351;SDS011;65179;47.786;19.138;2022-11-15T14:02:13;32.28;;;18.90;;
76351;SDS011;65179;47.786;19.138;2022-11-15T14:04:48;33.63;;;18.50;;
76351;SDS011;65179;47.786;19.138;2022-11-15T14:07:20;33.65;;;18.52;;
76351;SDS011;65179;47.786;19.138;2022-11-15T14:09:48;31.65;;;17.37;;
76351;SDS011;65179;47.786;19.138;2022-11-15T14:12:27;31.07;;;17.23;;
76351;SDS011;65179;47.786;19.138;2022-11-15T14:15:45;30.17;;;16.35;;
76351;SDS011;65179;47.786;19.138;2022-11-15T14:17:54;32.92;;;17.17;;
76351;SDS011;65179;47.786;19.138;2022-11-15T14:25:51;32.10;;;17.35;;
76351;SDS011;65179;47.786;19.138;2022-11-15T14:30:44;33.13;;;18.23;;
76351;SDS011;65179;47.786;19.138;2022-11-15T14:33:34;30.02;;;17.90;;
76351;SDS011;65179;47.786;19.138;2022-11-15T14:36:06;31.83;;;17.60;;
76351;SDS011;65179;47.786;19.138;2022-11-15T14:38:39;32.53;;;18.80;;
76351;SDS011;65179;47.786;19.138;2022-11-15T14:41:05;34.80;;;20.02;;
76351;SDS011;65179;47.786;19.138;2022-11-15T14:43:30;37.63;;;19.67;;
76351;SDS011;65179;47.786;19.138;2022-11-15T14:45:56;33.42;;;18.90;;
76351;SDS011;65179;47.786;19.138;2022-11-15T14:48:21;33.50;;;18.80;;
76351;SDS011;65179;47.786;19.138;2022-11-15T14:50:47;36.20;;;19.20;;
76351;SDS011;65179;47.786;19.138;2022-11-15T14:53:13;32.92;;;17.48;;
76351;SDS011;65179;47.786;19.138;2022-11-15T14:55:41;36.03;;;18.35;;
76351;SDS011;65179;47.786;19.138;2022-11-15T14:58:07;35.10;;;18.80;;
76351;SDS011;65179;47.786;19.138;2022-11-15T15:00:34;36.17;;;20.17;;
76351;SDS011;65179;47.786;19.138;2022-11-15T15:03:03;35.47;;;19.60;;
76351;SDS011;65179;47.786;19.138;2022-11-15T15:08:05;34.87;;;18.63;;
76351;SDS011;65179;47.786;19.138;2022-11-15T15:10:33;33.78;;;17.98;;
76351;SDS011;65179;47.786;19.138;2022-11-15T15:13:01;33.17;;;17.37;;
76351;SDS011;65179;47.786;19.138;2022-11-15T15:15:34;35.35;;;18.40;;
76351;SDS011;65179;47.786;19.138;2022-11-15T15:18:02;31.87;;;17.98;;
76351;SDS011;65179;47.786;19.138;2022-11-15T15:20:29;33.77;;;18.60;;
76351;SDS011;65179;47.786;19.138;2022-11-15T15:22:55;32.88;;;18.10;;
76351;SDS011;65179;47.786;19.138;2022-11-15T15:25:23;31.40;;;17.65;;
76351;SDS011;65179;47.786;19.138;2022-11-15T15:27:52;34.05;;;18.92;;
76351;SDS011;65179;47.786;19.138;2022-11-15T15:30:18;34.43;;;18.80;;
76351;SDS011;65179;47.786;19.138;2022-11-15T15:32:43;35.13;;;18.83;;
76351;SDS011;65179;47.786;19.138;2022-11-15T15:35:11;38.27;;;19.97;;
76351;SDS011;65179;47.786;19.138;2022-11-15T15:37:38;35.35;;;19.30;;
76351;SDS011;65179;47.786;19.138;2022-11-15T15:40:08;39.05;;;20.17;;
76351;SDS011;65179;47.786;19.138;2022-11-15T15:42:37;35.33;;;19.05;;
76351;SDS011;65179;47.786;19.138;2022-11-15T15:45:03;37.03;;;21.03;;
76351;SDS011;65179;47.786;19.138;2022-11-15T15:47:31;36.45;;;19.75;;
76351;SDS011;65179;47.786;19.138;2022-11-15T15:49:57;36.73;;;20.80;;
76351;SDS011;65179;47.786;19.138;2022-11-15T15:52:22;36.35;;;19.62;;
76351;SDS011;65179;47.786;19.138;2022-11-15T15:54:48;38.13;;;19.70;;
76351;SDS011;65179;47.786;19.138;2022-11-15T15:57:13;39.80;;;19.53;;
76351;SDS011;65179;47.786;19.138;2022-11-15T15:59:39;39.67;;;20.35;;
76351;SDS011;65179;47.786;19.138;2022-11-15T16:02:05;45.00;;;21.30;;
76351;SDS011;65179;47.786;19.138;2022-11-15T16:04:31;48.20;;;22.35;;
76351;SDS011;65179;47.786;19.138;2022-11-15T16:06:59;63.45;;;26.02;;
76351;SDS011;65179;47.786;19.138;2022-11-15T16:09:26;47.25;;;21.58;;
76351;SDS011;65179;47.786;19.138;2022-11-15T16:12:10;45.38;;;21.60;;
76351;SDS011;65179;47.786;19.138;2022-11-15T16:14:36;39.70;;;21.23;;
76351;SDS011;65179;47.786;19.138;2022-11-15T16:17:01;40.55;;;21.45;;
76351;SDS011;65179;47.786;19.138;2022-11-15T16:19:27;40.95;;;20.80;;
76351;SDS011;65179;47.786;19.138;2022-11-15T16:21:53;35.88;;;19.92;;
76351;SDS011;65179;47.786;19.138;2022-11-15T16:24:19;35.97;;;19.80;;
76351;SDS011;65179;47.786;19.138;2022-11-15T16:26:46;38.63;;;19.97;;
76351;SDS011;65179;47.786;19.138;2022-11-15T16:29:12;34.53;;;18.75;;
76351;SDS011;65179;47.786;19.138;2022-11-15T16:31:38;39.20;;;19.60;;
76351;SDS011;65179;47.786;19.138;2022-11-15T16:34:03;35.25;;;18.42;;
76351;SDS011;65179;47.786;19.138;2022-11-15T16:36:30;36.17;;;19.58;;
76351;SDS011;65179;47.786;19.138;2022-11-15T16:38:59;35.42;;;18.95;;
76351;SDS011;65179;47.786;19.138;2022-11-15T16:41:35;35.33;;;19.00;;
76351;SDS011;65179;47.786;19.138;2022-11-15T16:44:00;39.83;;;19.87;;
76351;SDS011;65179;47.786;19.138;2022-11-15T16:46:26;36.50;;;19.27;;
76351;SDS011;65179;47.786;19.138;2022-11-15T16:48:52;34.58;;;19.05;;
76351;SDS011;65179;47.786;19.138;2022-11-15T16:51:18;34.80;;;19.27;;
76351;SDS011;65179;47.786;19.138;2022-11-15T16:53:46;34.57;;;19.07;;